Timeline UpdatesTrip UpdatesNews PostsPvt PostsTravel TipsAdmin PostsConv PostsFollowed PostsChat RequestsBlog PostsPNR Posts

Disclaimer
Search
 
 
Thu Aug 21, 2014 03:55:06 ISTHomeTrainsΣChainsAtlasPNRForumGalleryNewsFAQTripsMembersLoginFeedback
No Recent News for this Train
Other Trains in the News **new
Latest...
Will remain cancelled between Bhiwani and Hisar on 28/01/2013 due to work of Road Under Bridge(RUB), only run between Jaipur and Bhiwani.
Sun Jan 27, 2013 (08:08PM)
⇐ Return Journey: Train# 59721

59722/Hisar Jn-Jaipur Jn Passenger (UnReserved)

Jul 16 2013 (12:41AM)
Change Departure Station:
Change Arrival Station:
Post a Train Travel TipPost a Train Travel Tip **new
Post a Comment/Question/Picture/VideoPost a Comment/Question/Picture/Video
Pantry/Catering
✕ NO Pantry Car
✕ NO Catering
RSA - Rake Sharing
Rake/Coach Composition
Loco
News    PNR    Forum    Time-Table    Availability    Fare Chart    Map    Arr/Dep History    Trips    Gallery    ΣChains    X/O    Timeline    
Travel Time: 7h 41m    35 halts    Distance: 327 km    Avg Speed: 42 km/hr
Type: Passenger
Zone: NWR/North Western
Departs @ 14:05 (Avg 19m late)
Platform# ???
SMTWTFS
Hisar Junction/HSR 
Arrives @ 21:46
Platform# ???
SMTWTFS
Banskho/BSKO 

35 halts. 45 intermediate Stations between Hisar Junction and Banskho

Show ALL intermediate Stations  Show Old Time-Table

#CodeStation NameX/OArrivesAvgDepartsAvgHaltPFDay#KmSpeedElevZoneAddress
1HSR»Hisar Junction (6)»  -14:05+19--10.057215mNWRHisar, Haryana
2STDSatrod  14:16+3114:17+311m--110.558215mNWRHisar, Haryana
3HNSHansi (1)  14:30+3014:31+311m1123.138217mNWRHissar, Haryana
4AUNAurang Nagar  14:40-14:41-1m--128.950216mNWRAurang Nagar, Haryana
5JKZJitakheri  14:46+3114:47+311m--133.154217mNWRBhiwani, Haryana
6BWKBawani Khera  14:57+3214:58+331m--142.063215mNWRBawani Khera, Haryana
7BNWBhiwani Junction (3)X  15:15+3915:25+3710m--160.068216mNWRBhiwani, Haryana
8MHUManheru (1)  15:37+3415:38+341m1173.666216mNWRBhiwani, Haryana
9CKDCharkhi Dadri (1)  15:50+3915:51+401m1186.962217mNWRDist. Bhiwani, Haryana
10JRLJharili (1)  16:05+3916:06+391m11101.240234mNWRJhajjar, Haryana
11SDRASudharana (1)16:18+3616:19+361m11109.369230mNWRSudharana, Haryana
12KSIKosli (1)  16:24+3816:25+381m11115.045236mNWRTumna Rd, Haryana
13NLQNangal Pathani Halt (1)  16:33-16:34-1m11121.043231mNWRNangal Pathani, Haryana
14JTSJatusana (1)  16:40+3716:41+371m11125.461243mNWRNanagal Pathani Rd, Haryana
15KGBSKishangarh Balawas (1)  16:50+4016:51+401m11134.517240mNWRKishengarh, Haryana
16RERewari Junction (8)  17:20+3617:25+425m41142.957245mNWRRewari, Haryana
17BWLBawalX  17:41+5017:42+521m--1158.155266mNWRBawal, Haryana
18MJNLMajri Nangal  17:49-17:50-1m--1164.655273mNWRState Highway 52, Rajasthan
19AIAAjarakaX  17:57+5117:58+521m--1171.053280mNWRAjaraka, Rajasthan
20KNARKhanpur Ahir  18:05-18:06-1m--1177.247284mNWRMDR 61, Rajasthan
21HSIHarsauli  18:13+5218:14+531m--1182.852287mNWRHarsoli, Rajasthan
22KRHKhairthal (2)  18:23+5318:24+541m21190.554305mNWRKhairthal, Rajasthan
23GALGhatla  18:32-18:33-1m--1197.655308mNWRState Highway 14, Rajasthan
24PSLParisalX  18:40+5618:41+571m--1204.168289mNWRKhairthal, Rajasthan
25AWRAlwar Junction (2)X  18:53+5018:56+543m21217.757267mNWRAlwar, Rajasthan
26MWWMahwa (1)  19:05+1:0819:06+1:101m11226.264264mNWRAlwar, Rajasthan
27MKHMalakhera (1)X  19:16+1:1019:17+1:121m11236.847265mNWRMala Khera, Rajasthan
28DGWDhigawara (1)  19:30+1:0819:31+1:111m11247.046278mNWRBaswa, Rajasthan
29RHGRajgarh (2)  19:40+1:0719:41+1:101m--1253.849303mNWRRajgarh, Rajasthan
30SRRGSurergoth (1)X  19:48-19:49-1m11259.553308mNWRState Highway 25, Rajasthan
31BUBaswa (2)  19:56+1:1519:57+1:181m11265.748291mNWRAlwar, Rajasthan
32GLNAGulana (1)  20:04-20:05-1m11271.442279mNWRState Highway 25, Rajasthan
33BKIBandikui Junction (6)X  20:15+4720:20+525m--1278.352283mNWRBandikui, Rajasthan
34ARNAArnia (2)  20:27+1:2420:28+1:271m--1284.446288mNWRBandikui, Rajasthan
35KVGMKolvagram (2)  20:35-20:36-1m--1289.770294mNWRBandikui, Rajasthan
36DODausa (2)XO  20:51+1:1520:52+1:181m11307.122333mNWRDausa, Rajasthan
37BSKO•Banskho (2)•21:46-21:47-1m--1326.547362mNWRJaipur, Rajasthan
38BAIBassi (3)O21:59+5322:00+1:001m--1336.073352mNWRJaipur, Rajasthan
39KWPKhatipura (2)22:13+5322:14+1:011m--1351.851364mNWRGandhinagar, Rajasthan
40GTJTGetor Jagatpura (2)X22:21+5722:22+1:011m--1357.741389mNWRJaipur, Rajasthan
41GADJJaipur Gandhinagar (2)22:30+5622:31+591m--1363.114426mNWRJaipur, Rajasthan
42JPJaipur Junction (7)22:55+34---1368.6-434mNWRJaipur, Rajasthan
Scroll to Top
Scroll to Bottom